Flight Track Log - Related Links

Times and Time Zones

All times are in EST time to prevent confusion due to time zone crossing. See the SWA764 flight status page for this flight to view local times or setup timezone preferences in your user account.

Time Position Orientation Groundspeed Altitude Reporting Facility
EST Latitude Longitude Course Direction KTS MPH feet Rate Location/Type
Thu 05:31:07 PM 37.7222 -122.2450 313° West 151 174 35,000  Level Oakland Center
Thu 05:32:08 PM 37.7539 -122.2881 313° West 197 227 3,500 -13,525 Descending Oakland Center
Thu 05:33:09 PM 37.7944 -122.3536 308° West 209 241 7,500 3,122 Climbing Oakland Center
Thu 05:34:11 PM 37.7386 -122.3958 211° Southwest 252 290 9,900 2,927 Climbing Oakland Center
Thu 05:35:12 PM 37.6525 -122.4161 191° South 324 373 13,500 3,885 Climbing Oakland Center
Thu 05:36:13 PM 37.5714 -122.3642 153° Southeast 359 413 17,800 3,344 Climbing Oakland Center
Thu 05:37:14 PM 37.4992 -122.2717 135° Southeast 370 426 20,300 2,195 Climbing Oakland Center
Thu 05:38:16 PM 37.4178 -122.1669 134° Southeast 417 480 22,300 2,244 Climbing Oakland Center
Thu 05:39:17 PM 37.3283 -122.0536 135° Southeast 455 524 24,900 2,361 Climbing Oakland Center
Thu 05:40:18 PM 37.2378 -121.9372 134° Southeast 467 537 27,100 2,468 Climbing Oakland Center
Thu 05:41:21 PM 37.1439 -121.8181 135° Southeast 479 551 30,000 2,780 Climbing Oakland Center
Thu 05:42:21 PM 37.0489 -121.7044 136° Southeast 474 545 32,800 1,488 Climbing Oakland Center
Thu 05:43:22 PM 36.9381 -121.5667 135° Southeast 471 542 33,000 98 Climbing Oakland Center
Thu 05:44:23 PM 36.8489 -121.4467 133° Southeast 472 543 33,000  Level Oakland Center
Thu 05:45:24 PM 36.7567 -121.3381 137° Southeast 472 543 33,000  Level Oakland Center
Thu 05:46:26 PM 36.6647 -121.2225 135° Southeast 471 542 33,000  Level Oakland Center
Thu 05:47:27 PM 36.5731 -121.1083 135° Southeast 469 540 33,000  Level Oakland Center
Thu 05:48:28 PM 36.4811 -120.9953 135° Southeast 467 537 33,000  Level Oakland Center
Thu 05:49:30 PM 36.3903 -120.8836 135° Southeast 463 533 33,000  Level Oakland Center
Thu 05:50:31 PM 36.3008 -120.7703 134° Southeast 460 529 33,000  Level Oakland Center
Thu 05:51:32 PM 36.1897 -120.6378 136° Southeast 462 532 33,000  Level Oakland Center
Thu 05:52:33 PM 36.0997 -120.5258 135° Southeast 460 529 33,000  Level Oakland Center
Thu 05:53:35 PM 36.0086 -120.4164 136° Southeast 458 527 33,000  Level Oakland Center
Thu 05:54:36 PM 35.9172 -120.3047 135° Southeast 461 531 33,000  Level Oakland Center
Thu 05:55:37 PM 35.8244 -120.1931 136° Southeast 464 534 33,000  Level Oakland Center
Thu 05:56:39 PM 35.7311 -120.0797 135° Southeast 467 537 33,000  Level Oakland Center
Thu 05:57:40 PM 35.6367 -119.9692 136° Southeast 466 536 33,000  Level Oakland Center
Thu 05:58:41 PM 35.5333 -119.8817 145° Southeast 450 518 33,000  Level Oakland Center
Thu 05:59:42 PM 35.4306 -119.7928 145° Southeast 449 517 33,000  Level Oakland Center
Thu 06:00:44 PM 35.3264 -119.7039 145° Southeast 452 520 33,000  Level Oakland Center
Thu 06:01:45 PM 35.2239 -119.6142 144° Southeast 452 520 33,000  Level Oakland Center
Thu 06:02:46 PM 35.1214 -119.5269 145° Southeast 449 517 33,000 -439 Level Oakland Center
Thu 06:03:48 PM 35.0008 -119.4233 145° Southeast 443 510 32,100 -1,854 Descending Oakland Center
Thu 06:04:49 PM 34.8986 -119.3356 145° Southeast 446 513 29,200 -2,585 Descending Oakland Center
Thu 06:05:51 PM 34.7942 -119.2469 145° Southeast 454 522 26,800 -2,341 Descending Oakland Center
Thu 06:06:52 PM 34.6917 -119.1611 145° Southeast 452 520 24,400 -2,676 Descending Oakland Center
Thu 06:08:10 PM 34.5697 -119.0589 145° Southeast 447 514 20,600 -2,936 Descending Los Angeles Center
Thu 06:09:13 PM 34.4539 -118.9619 145° Southeast 422 486 17,500 -2,544 Descending Los Angeles Center
Thu 06:10:15 PM 34.3594 -118.8853 146° Southeast 404 465 15,300 -2,032 Descending Los Angeles Center
Thu 06:11:17 PM 34.2625 -118.8469 162° South 368 423 13,300 -1,210 Descending Los Angeles Center
Thu 06:12:19 PM 34.1739 -118.8150 163° South 335 386 12,800 -484 Descending Los Angeles Center
Thu 06:13:21 PM 34.1011 -118.7875 163° South 277 319 12,300 -919 Descending Los Angeles Center
Thu 06:14:23 PM 34.0347 -118.7247 142° Southeast 296 341 10,900 -1,065 Descending Los Angeles Center
Thu 06:15:25 PM 34.0256 -118.6250 96° East 302 348 10,100 -768 Descending Los Angeles Center
Thu 06:16:28 PM 34.0167 -118.5306 96° East 268 308 9,300 -864 Descending Los Angeles Center
Thu 06:17:30 PM 34.0106 -118.4508 95° East 248 285 8,300 -1,210 Descending Los Angeles Center
Thu 06:18:32 PM 34.0189 -118.3731 83° East 234 269 6,800 -1,694 Descending Los Angeles Center
Thu 06:19:34 PM 34.0242 -118.3000 85° East 224 258 4,800 -1,355 Descending Los Angeles Center
Thu 06:20:36 PM 34.0289 -118.2311 85° East 211 243 4,000 -387 Descending Los Angeles Center
Thu 06:21:38 PM 34.0211 -118.1572 97° East 214 246 4,000 -48 Level Los Angeles Center
Thu 06:22:41 PM 33.9772 -118.1758 199° South 194 223 3,900 -528 Descending Los Angeles Center
Thu 06:23:43 PM 33.9686 -118.2358 260° West 186 214 2,900 -968 Descending Los Angeles Center
Thu 06:24:45 PM 33.9628 -118.2964 263° West 185 213 1,900 -871 Descending Los Angeles Center
Thu 06:25:47 PM 33.9583 -118.3469 264° West 167 192 1,100 -774 Descending Los Angeles Center
Thu 06:26:49 PM 33.9531 -118.3981 263° West 140 161 300 -484 Descending Los Angeles Center
Thu 06:27:51 PM 33.9489 -118.4392 263° West 137 158 100 -194 Descending Los Angeles Center
Thu 06:29:00 PM 33.9425 -118.4081 90° East  Level Estimated

Login

Don't have an account? Register now (free) for customized features, flight alerts, and more!